Lerna, Illinois
Current Conditions -  °F | °C
As of 4:53 AM on Friday 28 Nov 2014 (Local Time) from KMTO Reporting Station
Broken Clouds Broken Clouds  
Wind Chill: -11°   Ceiling: 7000
Heat Index: -7°   Visibility: 10mi
Dew Point: -12°   Wind: 6mph
Humidity: 65%   Direction: 180°S
Pressure: 30.36"   Gusts: NA
Location:  39.42°N, 88.29°W
Report Text: KMTO 281053Z AUTO 18005KT 10SM BKN070 BKN120 M07/M12 A3036 RMK AO2 SLP293 T10671122
Loading
Personal Weather Stations






























Interactive Weather Map New forecast layout! Learn more

10-Day Weather Forecast

Advertisements
Track Severe Weather on mobile